sensor_id;sensor_type;location;lat;lon;timestamp;P1;durP1;ratioP1;P2;durP2;ratioP2
6394;SDS011;3230;42.588;23.358;2023-06-10T00:01:24;9.63;;;5.70;;
6394;SDS011;3230;42.588;23.358;2023-06-10T00:03:50;6.93;;;5.13;;
6394;SDS011;3230;42.588;23.358;2023-06-10T00:06:17;10.30;;;6.07;;
6394;SDS011;3230;42.588;23.358;2023-06-10T00:08:42;6.80;;;5.90;;
6394;SDS011;3230;42.588;23.358;2023-06-10T00:11:08;7.53;;;5.80;;
6394;SDS011;3230;42.588;23.358;2023-06-10T00:13:33;7.37;;;5.97;;
6394;SDS011;3230;42.588;23.358;2023-06-10T00:15:58;8.53;;;5.57;;
6394;SDS011;3230;42.588;23.358;2023-06-10T00:18:24;6.00;;;5.00;;
6394;SDS011;3230;42.588;23.358;2023-06-10T00:20:52;10.60;;;5.93;;
6394;SDS011;3230;42.588;23.358;2023-06-10T00:23:20;9.80;;;7.20;;
6394;SDS011;3230;42.588;23.358;2023-06-10T00:25:46;9.10;;;7.57;;
6394;SDS011;3230;42.588;23.358;2023-06-10T00:28:11;11.77;;;8.43;;
6394;SDS011;3230;42.588;23.358;2023-06-10T00:30:37;12.63;;;8.07;;
6394;SDS011;3230;42.588;23.358;2023-06-10T00:33:02;13.10;;;9.47;;
6394;SDS011;3230;42.588;23.358;2023-06-10T00:35:27;16.20;;;10.10;;
6394;SDS011;3230;42.588;23.358;2023-06-10T00:37:53;14.53;;;9.77;;
6394;SDS011;3230;42.588;23.358;2023-06-10T00:40:18;15.57;;;10.70;;
6394;SDS011;3230;42.588;23.358;2023-06-10T00:42:43;18.10;;;11.90;;
6394;SDS011;3230;42.588;23.358;2023-06-10T00:45:09;17.30;;;12.03;;
6394;SDS011;3230;42.588;23.358;2023-06-10T00:47:34;20.90;;;12.90;;
6394;SDS011;3230;42.588;23.358;2023-06-10T00:50:00;21.10;;;15.20;;
6394;SDS011;3230;42.588;23.358;2023-06-10T00:52:27;22.83;;;14.90;;
6394;SDS011;3230;42.588;23.358;2023-06-10T00:54:54;24.33;;;15.10;;
6394;SDS011;3230;42.588;23.358;2023-06-10T00:57:19;27.13;;;15.80;;
6394;SDS011;3230;42.588;23.358;2023-06-10T00:59:47;27.67;;;16.00;;
6394;SDS011;3230;42.588;23.358;2023-06-10T01:02:13;22.97;;;14.80;;
6394;SDS011;3230;42.588;23.358;2023-06-10T01:04:39;26.77;;;15.80;;
6394;SDS011;3230;42.588;23.358;2023-06-10T01:07:17;27.87;;;15.50;;
6394;SDS011;3230;42.588;23.358;2023-06-10T01:10:04;25.00;;;15.20;;
6394;SDS011;3230;42.588;23.358;2023-06-10T01:15:13;20.23;;;13.03;;
6394;SDS011;3230;42.588;23.358;2023-06-10T01:20:25;15.83;;;10.50;;
6394;SDS011;3230;42.588;23.358;2023-06-10T01:22:55;13.83;;;9.50;;
6394;SDS011;3230;42.588;23.358;2023-06-10T01:25:23;10.43;;;7.73;;
6394;SDS011;3230;42.588;23.358;2023-06-10T01:30:31;13.17;;;8.40;;
6394;SDS011;3230;42.588;23.358;2023-06-10T01:33:04;10.83;;;7.60;;
6394;SDS011;3230;42.588;23.358;2023-06-10T01:35:33;13.23;;;8.30;;
6394;SDS011;3230;42.588;23.358;2023-06-10T01:38:02;13.47;;;8.23;;
6394;SDS011;3230;42.588;23.358;2023-06-10T01:40:29;18.57;;;9.97;;
6394;SDS011;3230;42.588;23.358;2023-06-10T01:42:56;14.57;;;9.73;;
6394;SDS011;3230;42.588;23.358;2023-06-10T01:45:21;16.00;;;10.80;;
6394;SDS011;3230;42.588;23.358;2023-06-10T01:47:47;13.97;;;9.63;;
6394;SDS011;3230;42.588;23.358;2023-06-10T01:50:12;16.93;;;10.90;;
6394;SDS011;3230;42.588;23.358;2023-06-10T01:52:37;15.80;;;10.60;;
6394;SDS011;3230;42.588;23.358;2023-06-10T01:55:03;18.17;;;9.50;;
6394;SDS011;3230;42.588;23.358;2023-06-10T01:57:29;19.10;;;9.90;;
6394;SDS011;3230;42.588;23.358;2023-06-10T01:59:55;15.43;;;8.60;;
6394;SDS011;3230;42.588;23.358;2023-06-10T02:02:20;12.33;;;7.80;;
6394;SDS011;3230;42.588;23.358;2023-06-10T02:04:47;12.23;;;8.00;;
6394;SDS011;3230;42.588;23.358;2023-06-10T02:07:12;12.53;;;7.73;;
6394;SDS011;3230;42.588;23.358;2023-06-10T02:09:38;10.97;;;7.70;;
6394;SDS011;3230;42.588;23.358;2023-06-10T02:12:03;13.50;;;8.43;;
6394;SDS011;3230;42.588;23.358;2023-06-10T02:14:31;16.80;;;8.80;;
6394;SDS011;3230;42.588;23.358;2023-06-10T02:16:57;12.33;;;9.10;;
6394;SDS011;3230;42.588;23.358;2023-06-10T02:19:23;10.90;;;8.57;;
6394;SDS011;3230;42.588;23.358;2023-06-10T02:21:50;13.80;;;9.67;;
6394;SDS011;3230;42.588;23.358;2023-06-10T02:24:15;12.57;;;8.90;;
6394;SDS011;3230;42.588;23.358;2023-06-10T02:26:41;15.63;;;10.20;;
6394;SDS011;3230;42.588;23.358;2023-06-10T02:29:06;21.77;;;10.13;;
6394;SDS011;3230;42.588;23.358;2023-06-10T02:31:32;15.87;;;9.10;;
6394;SDS011;3230;42.588;23.358;2023-06-10T02:34:00;13.50;;;9.00;;
6394;SDS011;3230;42.588;23.358;2023-06-10T02:36:26;13.70;;;8.47;;
6394;SDS011;3230;42.588;23.358;2023-06-10T02:38:53;12.37;;;7.60;;
6394;SDS011;3230;42.588;23.358;2023-06-10T02:41:18;9.40;;;6.57;;
6394;SDS011;3230;42.588;23.358;2023-06-10T02:43:44;10.57;;;6.87;;
6394;SDS011;3230;42.588;23.358;2023-06-10T02:46:09;8.53;;;6.90;;
6394;SDS011;3230;42.588;23.358;2023-06-10T02:48:45;11.53;;;7.53;;
6394;SDS011;3230;42.588;23.358;2023-06-10T02:51:11;10.10;;;7.73;;
6394;SDS011;3230;42.588;23.358;2023-06-10T02:53:37;9.40;;;7.20;;
6394;SDS011;3230;42.588;23.358;2023-06-10T02:56:02;10.10;;;6.40;;
6394;SDS011;3230;42.588;23.358;2023-06-10T02:58:28;11.83;;;6.20;;
6394;SDS011;3230;42.588;23.358;2023-06-10T03:00:54;9.17;;;6.10;;
6394;SDS011;3230;42.588;23.358;2023-06-10T03:03:20;8.30;;;5.77;;
6394;SDS011;3230;42.588;23.358;2023-06-10T03:05:47;10.57;;;6.57;;
6394;SDS011;3230;42.588;23.358;2023-06-10T03:08:13;7.90;;;6.10;;
6394;SDS011;3230;42.588;23.358;2023-06-10T03:10:38;7.53;;;5.63;;
6394;SDS011;3230;42.588;23.358;2023-06-10T03:13:04;7.10;;;5.80;;
6394;SDS011;3230;42.588;23.358;2023-06-10T03:15:29;7.40;;;5.90;;
6394;SDS011;3230;42.588;23.358;2023-06-10T03:17:57;7.70;;;5.80;;
6394;SDS011;3230;42.588;23.358;2023-06-10T03:20:25;7.90;;;5.60;;
6394;SDS011;3230;42.588;23.358;2023-06-10T03:22:50;5.90;;;5.23;;
6394;SDS011;3230;42.588;23.358;2023-06-10T03:25:16;10.03;;;5.93;;
6394;SDS011;3230;42.588;23.358;2023-06-10T03:27:42;7.83;;;5.60;;
6394;SDS011;3230;42.588;23.358;2023-06-10T03:30:08;15.70;;;6.10;;
6394;SDS011;3230;42.588;23.358;2023-06-10T03:32:34;7.97;;;5.20;;
6394;SDS011;3230;42.588;23.358;2023-06-10T03:35:00;6.90;;;4.70;;
6394;SDS011;3230;42.588;23.358;2023-06-10T03:37:26;9.63;;;4.90;;
6394;SDS011;3230;42.588;23.358;2023-06-10T03:39:51;8.23;;;6.00;;
6394;SDS011;3230;42.588;23.358;2023-06-10T03:42:17;6.53;;;5.10;;
6394;SDS011;3230;42.588;23.358;2023-06-10T03:44:42;7.10;;;5.27;;
6394;SDS011;3230;42.588;23.358;2023-06-10T03:47:07;6.70;;;5.03;;
6394;SDS011;3230;42.588;23.358;2023-06-10T03:49:33;7.87;;;5.20;;
6394;SDS011;3230;42.588;23.358;2023-06-10T03:51:59;10.40;;;5.00;;
6394;SDS011;3230;42.588;23.358;2023-06-10T03:54:24;8.70;;;4.73;;
6394;SDS011;3230;42.588;23.358;2023-06-10T03:56:50;5.63;;;4.27;;
6394;SDS011;3230;42.588;23.358;2023-06-10T03:59:15;5.50;;;4.60;;
6394;SDS011;3230;42.588;23.358;2023-06-10T04:01:41;6.93;;;4.73;;
6394;SDS011;3230;42.588;23.358;2023-06-10T04:04:08;7.10;;;4.87;;
6394;SDS011;3230;42.588;23.358;2023-06-10T04:06:35;7.13;;;5.40;;
6394;SDS011;3230;42.588;23.358;2023-06-10T04:09:02;8.37;;;5.07;;
6394;SDS011;3230;42.588;23.358;2023-06-10T04:11:28;6.60;;;5.13;;
6394;SDS011;3230;42.588;23.358;2023-06-10T04:13:53;7.10;;;5.33;;
6394;SDS011;3230;42.588;23.358;2023-06-10T04:16:18;9.87;;;5.80;;
6394;SDS011;3230;42.588;23.358;2023-06-10T04:18:46;5.83;;;5.10;;
6394;SDS011;3230;42.588;23.358;2023-06-10T04:21:11;6.90;;;5.20;;
6394;SDS011;3230;42.588;23.358;2023-06-10T04:23:37;8.50;;;5.20;;
6394;SDS011;3230;42.588;23.358;2023-06-10T04:26:03;8.90;;;5.60;;
6394;SDS011;3230;42.588;23.358;2023-06-10T04:28:30;7.90;;;4.80;;
6394;SDS011;3230;42.588;23.358;2023-06-10T04:30:56;7.90;;;6.00;;
6394;SDS011;3230;42.588;23.358;2023-06-10T04:33:22;10.13;;;6.63;;
6394;SDS011;3230;42.588;23.358;2023-06-10T04:35:48;9.40;;;6.83;;
6394;SDS011;3230;42.588;23.358;2023-06-10T04:38:13;13.03;;;7.77;;
6394;SDS011;3230;42.588;23.358;2023-06-10T04:40:39;10.17;;;7.03;;
6394;SDS011;3230;42.588;23.358;2023-06-10T04:43:05;8.60;;;7.23;;
6394;SDS011;3230;42.588;23.358;2023-06-10T04:45:30;9.60;;;7.37;;
6394;SDS011;3230;42.588;23.358;2023-06-10T04:47:56;10.80;;;6.97;;
6394;SDS011;3230;42.588;23.358;2023-06-10T04:50:22;8.47;;;5.67;;
6394;SDS011;3230;42.588;23.358;2023-06-10T04:52:48;6.77;;;5.60;;
6394;SDS011;3230;42.588;23.358;2023-06-10T04:55:14;10.03;;;5.97;;
6394;SDS011;3230;42.588;23.358;2023-06-10T04:57:41;8.10;;;5.93;;
6394;SDS011;3230;42.588;23.358;2023-06-10T05:00:06;8.93;;;5.87;;
6394;SDS011;3230;42.588;23.358;2023-06-10T05:02:33;9.80;;;6.50;;
6394;SDS011;3230;42.588;23.358;2023-06-10T05:04:59;7.60;;;5.90;;
6394;SDS011;3230;42.588;23.358;2023-06-10T05:07:24;7.47;;;6.27;;
6394;SDS011;3230;42.588;23.358;2023-06-10T05:09:50;7.67;;;6.00;;
6394;SDS011;3230;42.588;23.358;2023-06-10T05:12:16;7.07;;;5.70;;
6394;SDS011;3230;42.588;23.358;2023-06-10T05:14:41;8.90;;;6.60;;
6394;SDS011;3230;42.588;23.358;2023-06-10T05:17:06;5.60;;;4.97;;
6394;SDS011;3230;42.588;23.358;2023-06-10T05:19:32;7.67;;;5.90;;
6394;SDS011;3230;42.588;23.358;2023-06-10T05:21:57;6.97;;;5.70;;
6394;SDS011;3230;42.588;23.358;2023-06-10T05:24:23;14.20;;;6.57;;
6394;SDS011;3230;42.588;23.358;2023-06-10T05:26:48;8.87;;;6.30;;
6394;SDS011;3230;42.588;23.358;2023-06-10T05:29:14;8.73;;;6.33;;
6394;SDS011;3230;42.588;23.358;2023-06-10T05:31:40;9.70;;;6.50;;
6394;SDS011;3230;42.588;23.358;2023-06-10T05:34:06;9.03;;;6.10;;
6394;SDS011;3230;42.588;23.358;2023-06-10T05:39:16;7.23;;;5.53;;
6394;SDS011;3230;42.588;23.358;2023-06-10T05:41:41;12.33;;;7.30;;
6394;SDS011;3230;42.588;23.358;2023-06-10T05:44:06;8.30;;;6.73;;
6394;SDS011;3230;42.588;23.358;2023-06-10T05:46:32;16.37;;;7.60;;
6394;SDS011;3230;42.588;23.358;2023-06-10T05:48:57;11.27;;;7.07;;
6394;SDS011;3230;42.588;23.358;2023-06-10T05:51:23;11.60;;;7.40;;
6394;SDS011;3230;42.588;23.358;2023-06-10T05:53:48;12.37;;;7.00;;
6394;SDS011;3230;42.588;23.358;2023-06-10T05:56:14;7.63;;;6.13;;
6394;SDS011;3230;42.588;23.358;2023-06-10T05:58:39;6.17;;;5.30;;
6394;SDS011;3230;42.588;23.358;2023-06-10T06:01:05;7.80;;;6.47;;
6394;SDS011;3230;42.588;23.358;2023-06-10T06:03:30;11.30;;;6.27;;
6394;SDS011;3230;42.588;23.358;2023-06-10T06:05:56;14.63;;;5.93;;
6394;SDS011;3230;42.588;23.358;2023-06-10T06:08:21;10.77;;;6.40;;
6394;SDS011;3230;42.588;23.358;2023-06-10T06:10:46;12.70;;;7.70;;
6394;SDS011;3230;42.588;23.358;2023-06-10T06:13:13;14.17;;;9.37;;
6394;SDS011;3230;42.588;23.358;2023-06-10T06:15:38;11.70;;;7.67;;
6394;SDS011;3230;42.588;23.358;2023-06-10T06:18:04;9.03;;;7.40;;
6394;SDS011;3230;42.588;23.358;2023-06-10T06:20:29;8.67;;;7.23;;
6394;SDS011;3230;42.588;23.358;2023-06-10T06:22:55;14.40;;;8.47;;
6394;SDS011;3230;42.588;23.358;2023-06-10T06:25:20;9.87;;;7.63;;
6394;SDS011;3230;42.588;23.358;2023-06-10T06:27:46;11.60;;;8.50;;
6394;SDS011;3230;42.588;23.358;2023-06-10T06:30:11;15.70;;;10.53;;
6394;SDS011;3230;42.588;23.358;2023-06-10T06:32:37;15.50;;;10.47;;
6394;SDS011;3230;42.588;23.358;2023-06-10T06:35:02;13.53;;;10.30;;
6394;SDS011;3230;42.588;23.358;2023-06-10T06:37:29;15.00;;;10.40;;
6394;SDS011;3230;42.588;23.358;2023-06-10T06:39:55;18.47;;;10.60;;
6394;SDS011;3230;42.588;23.358;2023-06-10T06:42:20;12.40;;;10.00;;
6394;SDS011;3230;42.588;23.358;2023-06-10T06:44:46;16.33;;;11.50;;
6394;SDS011;3230;42.588;23.358;2023-06-10T06:47:12;17.57;;;12.53;;
6394;SDS011;3230;42.588;23.358;2023-06-10T06:49:39;19.73;;;12.40;;
6394;SDS011;3230;42.588;23.358;2023-06-10T06:52:04;20.57;;;14.70;;
6394;SDS011;3230;42.588;23.358;2023-06-10T06:54:30;21.07;;;14.13;;
6394;SDS011;3230;42.588;23.358;2023-06-10T06:56:56;23.47;;;16.93;;
6394;SDS011;3230;42.588;23.358;2023-06-10T06:59:22;21.90;;;15.10;;
6394;SDS011;3230;42.588;23.358;2023-06-10T07:01:47;21.40;;;15.77;;
6394;SDS011;3230;42.588;23.358;2023-06-10T07:04:14;20.40;;;14.80;;
6394;SDS011;3230;42.588;23.358;2023-06-10T07:06:41;17.20;;;12.73;;
6394;SDS011;3230;42.588;23.358;2023-06-10T07:09:07;15.80;;;11.40;;
6394;SDS011;3230;42.588;23.358;2023-06-10T07:11:33;12.00;;;10.00;;
6394;SDS011;3230;42.588;23.358;2023-06-10T07:13:59;15.70;;;10.60;;
6394;SDS011;3230;42.588;23.358;2023-06-10T07:16:24;12.87;;;9.57;;
6394;SDS011;3230;42.588;23.358;2023-06-10T07:18:49;13.77;;;9.73;;
6394;SDS011;3230;42.588;23.358;2023-06-10T07:21:15;11.63;;;8.80;;
6394;SDS011;3230;42.588;23.358;2023-06-10T07:23:43;10.60;;;7.47;;
6394;SDS011;3230;42.588;23.358;2023-06-10T07:26:09;8.20;;;6.13;;
6394;SDS011;3230;42.588;23.358;2023-06-10T07:28:39;7.93;;;5.83;;
6394;SDS011;3230;42.588;23.358;2023-06-10T07:31:05;7.33;;;5.53;;
6394;SDS011;3230;42.588;23.358;2023-06-10T07:33:30;8.30;;;6.00;;
6394;SDS011;3230;42.588;23.358;2023-06-10T07:35:56;8.00;;;5.17;;
6394;SDS011;3230;42.588;23.358;2023-06-10T07:38:21;8.13;;;6.73;;
6394;SDS011;3230;42.588;23.358;2023-06-10T07:40:47;6.53;;;5.20;;
6394;SDS011;3230;42.588;23.358;2023-06-10T07:43:12;7.67;;;6.20;;
6394;SDS011;3230;42.588;23.358;2023-06-10T07:45:41;6.80;;;5.57;;
6394;SDS011;3230;42.588;23.358;2023-06-10T07:48:06;8.27;;;4.60;;
6394;SDS011;3230;42.588;23.358;2023-06-10T07:50:32;5.27;;;3.60;;
6394;SDS011;3230;42.588;23.358;2023-06-10T07:52:58;4.57;;;3.00;;
6394;SDS011;3230;42.588;23.358;2023-06-10T07:55:23;3.57;;;2.57;;
6394;SDS011;3230;42.588;23.358;2023-06-10T07:57:51;6.00;;;3.30;;
6394;SDS011;3230;42.588;23.358;2023-06-10T08:00:16;4.97;;;2.90;;
6394;SDS011;3230;42.588;23.358;2023-06-10T08:02:42;9.13;;;4.50;;
6394;SDS011;3230;42.588;23.358;2023-06-10T08:05:08;4.93;;;4.00;;
6394;SDS011;3230;42.588;23.358;2023-06-10T08:07:33;6.87;;;5.20;;
6394;SDS011;3230;42.588;23.358;2023-06-10T08:09:59;4.97;;;4.00;;
6394;SDS011;3230;42.588;23.358;2023-06-10T08:12:24;11.10;;;5.83;;
6394;SDS011;3230;42.588;23.358;2023-06-10T08:14:49;10.77;;;9.67;;
6394;SDS011;3230;42.588;23.358;2023-06-10T08:17:15;9.77;;;4.57;;
6394;SDS011;3230;42.588;23.358;2023-06-10T08:19:40;5.30;;;4.50;;
6394;SDS011;3230;42.588;23.358;2023-06-10T08:22:06;6.63;;;4.87;;
6394;SDS011;3230;42.588;23.358;2023-06-10T08:24:32;6.90;;;5.10;;
6394;SDS011;3230;42.588;23.358;2023-06-10T08:26:57;7.90;;;4.80;;
6394;SDS011;3230;42.588;23.358;2023-06-10T08:29:23;7.53;;;5.20;;
6394;SDS011;3230;42.588;23.358;2023-06-10T08:31:48;7.20;;;4.50;;
6394;SDS011;3230;42.588;23.358;2023-06-10T08:34:14;4.90;;;4.13;;
6394;SDS011;3230;42.588;23.358;2023-06-10T08:36:39;10.00;;;5.27;;
6394;SDS011;3230;42.588;23.358;2023-06-10T08:39:05;9.00;;;4.87;;
6394;SDS011;3230;42.588;23.358;2023-06-10T08:41:31;6.43;;;4.10;;
6394;SDS011;3230;42.588;23.358;2023-06-10T08:44:10;6.57;;;4.13;;
6394;SDS011;3230;42.588;23.358;2023-06-10T08:46:44;6.10;;;3.97;;
6394;SDS011;3230;42.588;23.358;2023-06-10T08:49:10;3.47;;;3.17;;
6394;SDS011;3230;42.588;23.358;2023-06-10T08:51:45;4.50;;;3.50;;
6394;SDS011;3230;42.588;23.358;2023-06-10T08:54:17;4.93;;;3.43;;
6394;SDS011;3230;42.588;23.358;2023-06-10T08:56:48;4.10;;;3.70;;
6394;SDS011;3230;42.588;23.358;2023-06-10T08:59:16;5.30;;;3.77;;
6394;SDS011;3230;42.588;23.358;2023-06-10T09:01:42;9.20;;;4.30;;
6394;SDS011;3230;42.588;23.358;2023-06-10T09:04:08;8.07;;;4.20;;
6394;SDS011;3230;42.588;23.358;2023-06-10T09:06:34;3.50;;;3.20;;
6394;SDS011;3230;42.588;23.358;2023-06-10T09:09:01;3.53;;;3.00;;
6394;SDS011;3230;42.588;23.358;2023-06-10T09:11:27;4.70;;;2.90;;
6394;SDS011;3230;42.588;23.358;2023-06-10T09:13:52;9.10;;;3.30;;
6394;SDS011;3230;42.588;23.358;2023-06-10T09:16:18;6.93;;;3.50;;
6394;SDS011;3230;42.588;23.358;2023-06-10T09:18:43;4.63;;;3.80;;
6394;SDS011;3230;42.588;23.358;2023-06-10T09:21:09;11.13;;;3.90;;
6394;SDS011;3230;42.588;23.358;2023-06-10T09:23:35;7.13;;;5.13;;
6394;SDS011;3230;42.588;23.358;2023-06-10T09:26:02;4.73;;;2.93;;
6394;SDS011;3230;42.588;23.358;2023-06-10T09:28:30;5.87;;;2.87;;
6394;SDS011;3230;42.588;23.358;2023-06-10T09:31:04;5.33;;;2.80;;
6394;SDS011;3230;42.588;23.358;2023-06-10T09:33:32;6.63;;;4.30;;
6394;SDS011;3230;42.588;23.358;2023-06-10T09:35:59;4.47;;;3.20;;
6394;SDS011;3230;42.588;23.358;2023-06-10T09:38:33;4.13;;;3.20;;
6394;SDS011;3230;42.588;23.358;2023-06-10T09:41:00;4.87;;;2.53;;
6394;SDS011;3230;42.588;23.358;2023-06-10T09:43:38;4.73;;;2.97;;
6394;SDS011;3230;42.588;23.358;2023-06-10T09:46:05;4.27;;;3.40;;
6394;SDS011;3230;42.588;23.358;2023-06-10T09:48:34;4.13;;;3.10;;
6394;SDS011;3230;42.588;23.358;2023-06-10T09:51:00;4.37;;;3.20;;
6394;SDS011;3230;42.588;23.358;2023-06-10T09:53:26;3.90;;;2.53;;
6394;SDS011;3230;42.588;23.358;2023-06-10T09:55:51;5.23;;;3.87;;
6394;SDS011;3230;42.588;23.358;2023-06-10T09:58:17;10.40;;;3.43;;
6394;SDS011;3230;42.588;23.358;2023-06-10T10:00:42;5.73;;;3.40;;
6394;SDS011;3230;42.588;23.358;2023-06-10T10:03:09;3.87;;;3.13;;
6394;SDS011;3230;42.588;23.358;2023-06-10T10:05:34;4.70;;;3.90;;
6394;SDS011;3230;42.588;23.358;2023-06-10T10:08:00;5.80;;;3.97;;
6394;SDS011;3230;42.588;23.358;2023-06-10T10:10:25;4.63;;;3.70;;
6394;SDS011;3230;42.588;23.358;2023-06-10T10:12:53;5.40;;;4.07;;
6394;SDS011;3230;42.588;23.358;2023-06-10T10:15:24;5.50;;;3.50;;
6394;SDS011;3230;42.588;23.358;2023-06-10T10:18:06;7.10;;;3.73;;
6394;SDS011;3230;42.588;23.358;2023-06-10T10:20:34;4.33;;;3.50;;
6394;SDS011;3230;42.588;23.358;2023-06-10T10:23:05;4.30;;;3.47;;
6394;SDS011;3230;42.588;23.358;2023-06-10T10:25:38;5.40;;;3.70;;
6394;SDS011;3230;42.588;23.358;2023-06-10T10:30:37;5.80;;;4.10;;
6394;SDS011;3230;42.588;23.358;2023-06-10T10:33:12;6.57;;;3.83;;
6394;SDS011;3230;42.588;23.358;2023-06-10T10:35:41;6.03;;;4.10;;
6394;SDS011;3230;42.588;23.358;2023-06-10T10:38:08;7.17;;;3.83;;
6394;SDS011;3230;42.588;23.358;2023-06-10T10:40:34;6.50;;;3.57;;
6394;SDS011;3230;42.588;23.358;2023-06-10T10:43:01;6.63;;;4.00;;
6394;SDS011;3230;42.588;23.358;2023-06-10T10:45:28;5.33;;;3.70;;
6394;SDS011;3230;42.588;23.358;2023-06-10T10:47:54;5.70;;;3.83;;
6394;SDS011;3230;42.588;23.358;2023-06-10T10:50:21;5.83;;;4.20;;
6394;SDS011;3230;42.588;23.358;2023-06-10T10:52:54;5.60;;;3.80;;
6394;SDS011;3230;42.588;23.358;2023-06-10T10:55:23;4.73;;;3.20;;
6394;SDS011;3230;42.588;23.358;2023-06-10T10:58:08;6.10;;;3.27;;
6394;SDS011;3230;42.588;23.358;2023-06-10T11:00:43;4.73;;;3.50;;
6394;SDS011;3230;42.588;23.358;2023-06-10T11:03:13;4.63;;;3.13;;
6394;SDS011;3230;42.588;23.358;2023-06-10T11:05:44;4.73;;;3.20;;
6394;SDS011;3230;42.588;23.358;2023-06-10T11:08:14;6.47;;;3.30;;
6394;SDS011;3230;42.588;23.358;2023-06-10T11:10:41;6.07;;;3.33;;
6394;SDS011;3230;42.588;23.358;2023-06-10T11:13:20;8.00;;;3.23;;
6394;SDS011;3230;42.588;23.358;2023-06-10T11:15:47;4.77;;;3.10;;
6394;SDS011;3230;42.588;23.358;2023-06-10T11:18:24;6.40;;;3.73;;
6394;SDS011;3230;42.588;23.358;2023-06-10T11:20:51;3.63;;;3.10;;
6394;SDS011;3230;42.588;23.358;2023-06-10T11:28:38;5.03;;;3.17;;
6394;SDS011;3230;42.588;23.358;2023-06-10T11:31:04;8.17;;;3.43;;
6394;SDS011;3230;42.588;23.358;2023-06-10T11:33:29;6.33;;;3.37;;
6394;SDS011;3230;42.588;23.358;2023-06-10T11:35:56;6.33;;;3.90;;
6394;SDS011;3230;42.588;23.358;2023-06-10T11:38:21;4.20;;;2.97;;
6394;SDS011;3230;42.588;23.358;2023-06-10T11:40:51;4.80;;;2.77;;
6394;SDS011;3230;42.588;23.358;2023-06-10T11:43:17;4.20;;;3.00;;
6394;SDS011;3230;42.588;23.358;2023-06-10T11:45:43;4.07;;;3.10;;
6394;SDS011;3230;42.588;23.358;2023-06-10T11:48:09;3.40;;;3.10;;
6394;SDS011;3230;42.588;23.358;2023-06-10T11:50:35;4.17;;;3.03;;
6394;SDS011;3230;42.588;23.358;2023-06-10T11:53:02;4.53;;;3.57;;
6394;SDS011;3230;42.588;23.358;2023-06-10T11:55:44;6.80;;;3.87;;
6394;SDS011;3230;42.588;23.358;2023-06-10T12:00:44;3.87;;;3.43;;
6394;SDS011;3230;42.588;23.358;2023-06-10T12:03:10;7.77;;;3.70;;
6394;SDS011;3230;42.588;23.358;2023-06-10T12:05:35;5.60;;;3.90;;
6394;SDS011;3230;42.588;23.358;2023-06-10T12:08:08;7.30;;;4.10;;
6394;SDS011;3230;42.588;23.358;2023-06-10T12:10:39;5.50;;;3.57;;
6394;SDS011;3230;42.588;23.358;2023-06-10T12:13:05;5.80;;;3.50;;
6394;SDS011;3230;42.588;23.358;2023-06-10T12:15:31;5.23;;;3.97;;
6394;SDS011;3230;42.588;23.358;2023-06-10T12:17:57;5.33;;;3.50;;
6394;SDS011;3230;42.588;23.358;2023-06-10T12:20:26;7.73;;;3.37;;
6394;SDS011;3230;42.588;23.358;2023-06-10T12:22:54;4.03;;;3.23;;
6394;SDS011;3230;42.588;23.358;2023-06-10T12:25:24;8.90;;;3.70;;
6394;SDS011;3230;42.588;23.358;2023-06-10T12:27:52;4.53;;;3.03;;
6394;SDS011;3230;42.588;23.358;2023-06-10T12:30:19;5.50;;;3.57;;
6394;SDS011;3230;42.588;23.358;2023-06-10T12:32:48;3.83;;;3.43;;
6394;SDS011;3230;42.588;23.358;2023-06-10T12:35:16;4.37;;;3.40;;
6394;SDS011;3230;42.588;23.358;2023-06-10T12:37:54;5.53;;;3.43;;
6394;SDS011;3230;42.588;23.358;2023-06-10T12:40:34;5.27;;;3.60;;
6394;SDS011;3230;42.588;23.358;2023-06-10T12:43:02;14.37;;;11.40;;
6394;SDS011;3230;42.588;23.358;2023-06-10T12:45:29;5.50;;;4.00;;
6394;SDS011;3230;42.588;23.358;2023-06-10T12:50:34;6.20;;;3.80;;
6394;SDS011;3230;42.588;23.358;2023-06-10T12:53:07;5.87;;;3.20;;
6394;SDS011;3230;42.588;23.358;2023-06-10T12:55:33;5.07;;;3.73;;
6394;SDS011;3230;42.588;23.358;2023-06-10T12:57:59;5.67;;;4.53;;
6394;SDS011;3230;42.588;23.358;2023-06-10T13:00:26;6.60;;;4.30;;
6394;SDS011;3230;42.588;23.358;2023-06-10T13:02:54;5.90;;;4.93;;
6394;SDS011;3230;42.588;23.358;2023-06-10T13:05:20;11.50;;;5.30;;
6394;SDS011;3230;42.588;23.358;2023-06-10T13:07:46;26.33;;;9.03;;
6394;SDS011;3230;42.588;23.358;2023-06-10T13:10:15;8.27;;;4.67;;
6394;SDS011;3230;42.588;23.358;2023-06-10T13:12:42;5.80;;;3.80;;
6394;SDS011;3230;42.588;23.358;2023-06-10T13:15:08;10.00;;;4.27;;
6394;SDS011;3230;42.588;23.358;2023-06-10T13:17:34;7.10;;;5.17;;
6394;SDS011;3230;42.588;23.358;2023-06-10T13:20:01;10.47;;;6.23;;
6394;SDS011;3230;42.588;23.358;2023-06-10T13:22:30;7.53;;;4.60;;
6394;SDS011;3230;42.588;23.358;2023-06-10T13:24:58;5.80;;;4.17;;
6394;SDS011;3230;42.588;23.358;2023-06-10T13:27:28;5.83;;;3.70;;
6394;SDS011;3230;42.588;23.358;2023-06-10T13:29:53;26.80;;;5.27;;
6394;SDS011;3230;42.588;23.358;2023-06-10T13:32:19;9.53;;;3.63;;
6394;SDS011;3230;42.588;23.358;2023-06-10T13:34:44;4.50;;;3.20;;
6394;SDS011;3230;42.588;23.358;2023-06-10T13:37:10;4.60;;;3.73;;
6394;SDS011;3230;42.588;23.358;2023-06-10T13:39:37;9.33;;;4.17;;
6394;SDS011;3230;42.588;23.358;2023-06-10T13:42:03;6.30;;;3.60;;
6394;SDS011;3230;42.588;23.358;2023-06-10T13:44:29;8.73;;;5.40;;
6394;SDS011;3230;42.588;23.358;2023-06-10T13:46:58;6.10;;;4.07;;
6394;SDS011;3230;42.588;23.358;2023-06-10T13:49:24;8.83;;;3.80;;
6394;SDS011;3230;42.588;23.358;2023-06-10T13:51:50;15.23;;;5.40;;
6394;SDS011;3230;42.588;23.358;2023-06-10T13:54:15;10.60;;;4.60;;
6394;SDS011;3230;42.588;23.358;2023-06-10T13:56:41;10.23;;;4.73;;
6394;SDS011;3230;42.588;23.358;2023-06-10T13:59:06;14.20;;;5.27;;
6394;SDS011;3230;42.588;23.358;2023-06-10T14:01:32;10.60;;;5.70;;
6394;SDS011;3230;42.588;23.358;2023-06-10T14:03:58;10.77;;;4.70;;
6394;SDS011;3230;42.588;23.358;2023-06-10T14:06:24;9.60;;;5.60;;
6394;SDS011;3230;42.588;23.358;2023-06-10T14:08:49;11.10;;;4.90;;
6394;SDS011;3230;42.588;23.358;2023-06-10T14:11:15;7.53;;;4.80;;
6394;SDS011;3230;42.588;23.358;2023-06-10T14:13:40;11.60;;;5.63;;
6394;SDS011;3230;42.588;23.358;2023-06-10T14:16:06;8.83;;;4.70;;
6394;SDS011;3230;42.588;23.358;2023-06-10T14:18:31;15.43;;;6.40;;
6394;SDS011;3230;42.588;23.358;2023-06-10T14:20:57;7.37;;;5.73;;
6394;SDS011;3230;42.588;23.358;2023-06-10T14:23:22;11.70;;;6.30;;
6394;SDS011;3230;42.588;23.358;2023-06-10T14:25:49;18.63;;;7.93;;
6394;SDS011;3230;42.588;23.358;2023-06-10T14:28:15;11.50;;;8.07;;
6394;SDS011;3230;42.588;23.358;2023-06-10T14:30:40;10.60;;;6.53;;
6394;SDS011;3230;42.588;23.358;2023-06-10T14:33:05;10.27;;;6.73;;
6394;SDS011;3230;42.588;23.358;2023-06-10T14:35:31;7.70;;;6.13;;
6394;SDS011;3230;42.588;23.358;2023-06-10T14:37:56;7.27;;;5.63;;
6394;SDS011;3230;42.588;23.358;2023-06-10T14:40:22;11.87;;;6.43;;
6394;SDS011;3230;42.588;23.358;2023-06-10T14:42:49;10.67;;;6.70;;
6394;SDS011;3230;42.588;23.358;2023-06-10T14:45:14;10.13;;;6.60;;
6394;SDS011;3230;42.588;23.358;2023-06-10T14:47:40;15.53;;;6.23;;
6394;SDS011;3230;42.588;23.358;2023-06-10T14:50:06;9.23;;;5.73;;
6394;SDS011;3230;42.588;23.358;2023-06-10T14:52:32;7.90;;;5.90;;
6394;SDS011;3230;42.588;23.358;2023-06-10T14:54:57;10.17;;;6.53;;
6394;SDS011;3230;42.588;23.358;2023-06-10T14:57:23;9.50;;;6.93;;
6394;SDS011;3230;42.588;23.358;2023-06-10T14:59:48;10.97;;;6.47;;
6394;SDS011;3230;42.588;23.358;2023-06-10T15:02:13;10.60;;;6.20;;
6394;SDS011;3230;42.588;23.358;2023-06-10T15:04:39;11.93;;;6.60;;
6394;SDS011;3230;42.588;23.358;2023-06-10T15:07:05;9.30;;;6.10;;
6394;SDS011;3230;42.588;23.358;2023-06-10T15:09:31;9.87;;;6.20;;
6394;SDS011;3230;42.588;23.358;2023-06-10T15:11:57;13.27;;;7.50;;
6394;SDS011;3230;42.588;23.358;2023-06-10T15:14:24;9.90;;;6.83;;
6394;SDS011;3230;42.588;23.358;2023-06-10T15:16:50;9.83;;;7.50;;